Latest Weather Observations for Adelaide Airport

IDS60901

Issued at 9:31 pm CDT Friday 6 December 2019 (issued every 10 minutes, with the page automatically refreshed every 10 minutes)

About weather observations | Map of Adelaide area stations | Latest observations for Adelaide area | Other Formats
Station Details ID: 023034 Name: ADELAIDE AIRPORT Lat: -34.95 Lon: 138.52 Height: 2.0 m
Data from the previous 72 hours. | See also: Recent months at Adelaide Airport
Date/Time
CDT
Temp
°C
App
Temp
°C
Dew
Point
°C
Rel
Hum
%
Delta-T
°C
Wind Press
QNH
hPa
Press
MSL
hPa
Rain since
9am
mm
Dir  Spd
km/h
Gust
km/h
Spd
kts
Gust
kts
06/09:00pm 16.2 12.1 7.8 57 4.2 SSE 19 26 10 14 1017.8 1017.8 0.0
06/08:30pm 17.0 12.8 8.1 55 4.5 S 20 28 11 15 1017.4 1017.4 0.0
06/08:00pm 17.4 12.3 9.3 59 4.2 SSW 26 33 14 18 1017.3 1017.3 0.0
06/07:30pm 18.0 12.6 9.4 57 4.5 SW 28 35 15 19 1016.8 1016.8 0.0
06/07:00pm 18.3 12.5 9.6 57 4.6 SSW 30 39 16 21 1016.7 1016.7 0.0
06/06:30pm 19.2 13.1 9.6 53 5.1 SW 32 39 17 21 1016.7 1016.7 0.0
06/06:00pm 19.8 13.6 9.2 50 5.6 SW 32 43 17 23 1016.5 1016.5 0.0
06/05:30pm 20.0 13.9 9.7 51 5.5 SW 32 39 17 21 1015.8 1015.8 0.0
06/05:00pm 20.0 14.1 11.0 56 4.9 SW 33 41 18 22 1015.8 1015.8 0.0
06/04:30pm 19.9 14.4 10.5 54 5.1 SW 30 35 16 19 1015.6 1015.6 0.0
06/04:00pm 20.2 14.5 9.9 51 5.5 SW 30 35 16 19 1015.8 1015.8 0.0
06/03:30pm 19.1 13.1 10.1 56 4.8 SW 32 39 17 21 1016.1 1016.1 0.0
06/03:00pm 19.0 13.0 10.2 56 4.7 SW 32 37 17 20 1016.3 1016.3 0.0
06/02:30pm 19.0 13.4 10.0 56 4.8 SW 30 41 16 22 1016.4 1016.4 0.0
06/02:00pm 18.7 12.7 10.1 57 4.6 SW 32 41 17 22 1016.6 1016.6 0.0
06/01:30pm 18.8 12.8 10.0 56 4.7 SW 32 37 17 20 1016.7 1016.7 0.0
06/01:00pm 19.0 12.6 9.5 54 5.0 SW 33 39 18 21 1017.0 1017.0 0.0
06/12:30pm 18.8 12.3 9.0 53 5.1 SW 33 43 18 23 1017.1 1017.1 0.0
06/12:00pm 17.9 11.4 9.0 56 4.6 SW 33 41 18 22 1017.2 1017.2 0.0
06/11:30am 17.5 11.5 8.8 56 4.5 SW 30 35 16 19 1017.0 1017.0 0.0
06/11:00am 17.5 11.2 8.8 56 4.5 SW 32 39 17 21 1017.6 1017.6 0.0
06/10:30am 17.2 12.3 8.4 56 4.5 SW 24 33 13 18 1017.3 1017.3 0.0
06/10:00am 16.5 11.7 8.7 60 4.0 SW 24 32 13 17 1017.5 1017.5 0.0
06/09:30am 16.6 12.9 7.9 56 4.4 SSW 17 24 9 13 1017.2 1017.2 0.0
06/09:00am 16.1 12.3 7.7 57 4.2 S 17 28 9 15 1016.9 1016.9 0.0
06/08:30am 14.9 10.6 7.9 63 3.5 S 20 26 11 14 1016.7 1016.7 0.0
06/08:00am 14.8 10.8 8.2 64 3.3 S 19 24 10 13 1016.5 1016.5 0.0
06/07:30am 14.3 11.5 8.5 68 2.9 SSE 13 19 7 10 1015.8 1015.8 0.0
06/07:00am 13.7 11.0 8.9 73 2.4 SE 13 15 7 8 1015.3 1015.3 0.0
06/06:30am 12.6 9.8 8.6 76 2.0 SE 13 15 7 8 1014.9 1014.9 0.0
06/06:00am 11.4 9.0 8.6 83 1.4 SSE 11 15 6 8 1014.8 1014.8 0.0
06/05:30am 12.1 9.4 8.9 81 1.6 SSE 13 15 7 8 1014.4 1014.4 0.0
06/05:00am 12.1 9.4 8.9 81 1.6 SSE 13 17 7 9 1014.2 1014.2 0.0
06/04:30am 12.0 9.3 9.0 82 1.5 S 13 17 7 9 1014.1 1014.1 0.0
06/04:00am 11.8 9.4 8.8 82 1.5 S 11 13 6 7 1013.8 1013.8 0.0
06/03:30am 12.6 10.4 9.2 80 1.7 SSW 11 13 6 7 1014.1 1014.1 0.0
06/03:00am 12.9 10.7 9.3 79 1.8 SSW 11 13 6 7 1014.0 1014.0 0.0
06/02:30am 13.0 11.3 9.7 80 1.7 S 9 11 5 6 1013.8 1013.8 0.0
06/02:00am 13.2 11.1 9.7 79 1.8 SSW 11 15 6 8 1013.9 1013.9 0.0
06/01:30am 13.1 10.6 9.8 80 1.7 S 13 13 7 7 1013.9 1013.9 0.0
06/01:00am 13.8 11.4 9.9 77 2.0 S 13 20 7 11 1014.1 1014.1 0.0
06/12:30am 14.1 11.4 10.5 79 1.9 S 15 19 8 10 1014.2 1014.2 0.0
06/12:00am 14.5 11.9 10.7 78 2.0 S 15 17 8 9 1014.4 1014.4 0.0
 
Date/Time
CDT
Temp
°C
App
Temp
°C
Dew
Point
°C
Rel
Hum
%
Delta-T
°C
Wind Press
QNH
hPa
Press
MSL
hPa
Rain since
9am
mm
Dir  Spd
km/h
Gust
km/h
Spd
kts
Gust
kts
05/11:30pm 14.9 13.1 10.7 76 2.2 SSW 11 15 6 8 1014.3 1014.3 0.0
05/11:00pm 15.6 13.1 10.9 73 2.5 SSE 15 19 8 10 1014.2 1014.2 0.0
05/10:30pm 16.5 13.4 11.5 72 2.7 SSE 19 26 10 14 1014.2 1014.2 0.0
05/10:00pm 17.6 14.4 11.3 66 3.4 SSW 19 24 10 13 1013.8 1013.8 0.0
05/09:30pm 17.9 14.8 12.3 70 3.1 SSW 20 30 11 16 1013.5 1013.5 0.0
05/09:00pm 18.0 15.5 12.4 70 3.1 SW 17 26 9 14 1013.4 1013.4 0.0
05/08:30pm 18.1 15.8 12.9 71 2.9 SW 17 20 9 11 1013.1 1013.1 0.0
05/08:00pm 18.5 15.8 13.6 73 2.8 SW 20 26 11 14 1013.2 1013.2 0.0
05/07:30pm 18.8 16.2 13.7 72 2.9 SW 20 26 11 14 1013.1 1013.1 0.0
05/07:00pm 18.9 16.3 13.8 72 2.9 SW 20 28 11 15 1012.9 1012.9 0.0
05/06:30pm 19.1 16.2 13.9 72 3.0 SW 22 28 12 15 1012.7 1012.7 0.0
05/06:00pm 19.3 16.4 13.9 71 3.1 SW 22 28 12 15 1012.6 1012.6 0.0
05/05:30pm 18.9 15.8 13.4 70 3.1 SW 22 30 12 16 1013.0 1013.0 0.0
05/05:00pm 19.4 16.2 13.2 67 3.5 SW 22 28 12 15 1013.1 1013.1 0.0
05/04:30pm 20.6 17.5 12.2 58 4.7 SW 20 30 11 16 1013.2 1013.2 0.0
05/04:00pm 19.8 17.0 13.1 65 3.8 SW 20 28 11 15 1013.4 1013.4 0.0
05/03:30pm 21.0 18.4 13.1 60 4.5 SW 19 28 10 15 1013.4 1013.4 0.0
05/03:00pm 20.4 18.6 13.2 63 4.1 WSW 15 20 8 11 1013.4 1013.4 0.0
05/02:30pm 19.8 18.2 13.9 69 3.4 WSW 15 20 8 11 1013.6 1013.6 0.0
05/02:00pm 19.9 17.8 13.6 67 3.6 WSW 17 26 9 14 1013.9 1013.9 0.0
05/01:30pm 19.7 17.5 13.2 66 3.7 SW 17 26 9 14 1014.1 1014.1 0.0
05/01:00pm 19.6 17.4 13.3 67 3.6 WSW 17 24 9 13 1014.3 1014.3 0.0
05/12:30pm 20.1 18.6 13.1 64 4.0 W 13 17 7 9 1014.2 1014.2 0.0
05/12:00pm 19.8 18.6 12.7 63 4.0 WSW 11 19 6 10 1014.4 1014.4 0.0
05/11:30am 19.8 18.2 12.7 63 4.0 WNW 13 19 7 10 1014.4 1014.4 0.0
05/11:00am 19.3 18.1 12.9 66 3.6 WSW 11 20 6 11 1014.4 1014.4 0.0
05/10:30am 19.3 17.7 12.7 65 3.7 WSW 13 20 7 11 1014.5 1014.5 0.0
05/10:00am 17.9 16.1 12.1 69 3.2 W 13 19 7 10 1014.4 1014.4 0.0
05/09:30am 17.9 16.2 12.3 70 3.1 W 13 19 7 10 1014.5 1014.5 0.0
05/09:00am 17.7 15.9 12.1 69 3.1 WSW 13 19 7 10 1014.5 1014.5 0.0
05/08:30am 17.4 15.3 12.3 72 2.8 WSW 15 24 8 13 1014.5 1014.5 0.0
05/08:00am 16.9 16.3 12.2 74 2.6 SSW 7 11 4 6 1014.3 1014.3 0.0
05/07:30am 15.4 14.5 11.3 76 2.2 NNE 7 9 4 5 1014.0 1014.0 0.0
05/07:00am 14.6 12.8 10.8 78 2.0 N 11 13 6 7 1013.7 1013.7 0.0
05/06:30am 13.7 11.5 10.8 83 1.5 NE 13 15 7 8 1013.4 1013.4 0.0
05/06:00am 13.5 11.7 10.8 84 1.4 NE 11 13 6 7 1013.3 1013.3 0.0
05/05:30am 14.2 12.9 11.2 82 1.6 NNE 9 11 5 6 1013.2 1013.2 0.0
05/05:00am 14.3 12.6 11.3 82 1.6 NNE 11 13 6 7 1013.0 1013.0 0.0
05/04:30am 14.6 12.5 11.0 79 1.9 NNE 13 17 7 9 1012.8 1012.8 0.0
05/04:00am 14.7 13.0 11.3 80 1.8 NNE 11 11 6 6 1012.7 1012.7 0.0
05/03:47am 15.0 13.8 11.5 79 1.9 NNE 9 11 5 6 1012.8 1012.8 0.0
05/03:30am 15.2 14.5 11.9 81 1.8 NNE 7 9 4 5 1012.9 1012.9 0.0
05/03:00am 15.6 16.5 12.9 84 1.5 CALM 0 7 0 4 1013.1 1013.1 0.0
05/02:30am 16.0 17.0 13.1 83 1.6 CALM 0 0 0 0 1013.5 1013.5 0.0
05/02:00am 16.4 16.4 13.6 83 1.6 ENE 6 9 3 5 1013.9 1013.9 0.0
05/01:30am 15.5 14.8 12.0 79 1.9 SE 7 9 4 5 1014.3 1014.3 0.0
05/01:00am 16.8 16.7 13.2 79 2.0 E 6 7 3 4 1014.4 1014.4 0.0
05/12:30am 15.5 15.0 12.2 81 1.8 SE 6 7 3 4 1014.7 1014.7 0.0
05/12:00am 15.1 14.0 11.8 81 1.8 SSE 9 11 5 6 1015.0 1015.0 0.0
 
Date/Time
CDT
Temp
°C
App
Temp
°C
Dew
Point
°C
Rel
Hum
%
Delta-T
°C
Wind Press
QNH
hPa
Press
MSL
hPa
Rain since
9am
mm
Dir  Spd
km/h
Gust
km/h
Spd
kts
Gust
kts
04/11:30pm 16.0 15.4 11.8 76 2.3 S 6 7 3 4 1015.1 1015.1 0.0
04/11:00pm 16.1 15.4 11.9 76 2.3 SSW 7 9 4 5 1015.3 1015.3 0.0
04/10:30pm 15.7 14.9 11.6 76 2.2 S 7 9 4 5 1015.3 1015.3 0.0
04/10:00pm 16.0 15.2 11.6 75 2.4 S 7 9 4 5 1015.5 1015.5 0.0
04/09:30pm 15.7 16.6 12.8 83 1.6 CALM 0 0 0 0 1015.3 1015.3 0.0
04/09:00pm 16.1 17.0 12.8 81 1.8 CALM 0 0 0 0 1015.2 1015.2 0.0
04/08:30pm 16.5 16.3 12.9 79 2.0 SW 6 9 3 5 1015.1 1015.1 0.0
04/08:00pm 17.2 16.3 12.5 74 2.6 SW 9 11 5 6 1015.4 1015.4 0.0
04/07:30pm 17.9 17.3 12.3 70 3.1 SW 7 9 4 5 1015.4 1015.4 0.0
04/07:00pm 18.2 16.8 12.2 68 3.3 SW 11 15 6 8 1015.5 1015.5 0.0
04/06:30pm 18.1 16.2 11.9 67 3.4 WSW 13 17 7 9 1015.4 1015.4 0.0
04/06:00pm 18.4 16.0 11.4 63 3.8 SW 15 19 8 10 1015.6 1015.6 0.0
04/05:30pm 18.4 15.8 10.8 61 4.1 SW 15 26 8 14 1015.7 1015.7 0.0
04/05:00pm 18.1 15.7 10.2 60 4.2 SW 13 19 7 10 1015.7 1015.7 0.0
04/04:30pm 19.7 17.7 10.0 53 5.2 WSW 11 17 6 9 1015.8 1015.8 0.0
04/04:00pm 19.1 17.3 9.4 53 5.1 SSW 9 15 5 8 1015.8 1015.8 0.0
04/03:30pm 19.1 16.5 9.4 53 5.1 SW 13 17 7 9 1016.0 1016.0 0.0
04/03:00pm 19.6 16.9 9.1 50 5.5 W 13 17 7 9 1016.1 1016.1 0.0
04/02:30pm 18.9 16.3 9.2 53 5.1 W 13 17 7 9 1016.3 1016.3 0.0
04/02:00pm 19.6 16.9 8.9 50 5.6 W 13 20 7 11 1016.5 1016.5 0.0
04/01:30pm 19.6 16.8 8.7 49 5.7 WSW 13 20 7 11 1016.6 1016.6 0.0
04/01:00pm 18.7 15.9 8.7 52 5.2 WNW 13 20 7 11 1017.0 1017.0 0.0
04/12:30pm 18.3 15.5 8.6 53 5.0 WSW 13 19 7 10 1017.4 1017.4 0.0
04/12:00pm 18.2 15.1 9.0 55 4.8 WNW 15 22 8 12 1017.6 1017.6 0.0
04/11:30am 17.6 14.1 8.7 56 4.6 W 17 22 9 12 1017.7 1017.7 0.0
04/11:00am 17.2 13.2 8.9 58 4.3 WNW 20 28 11 15 1017.8 1017.8 0.0
04/10:30am 16.9 13.8 8.9 59 4.1 W 15 26 8 14 1017.8 1017.8 0.0
04/10:00am 17.7 14.0 9.3 58 4.4 W 19 26 10 14 1017.9 1017.9 0.0
04/09:30am 16.6 12.7 8.8 60 4.0 WNW 19 28 10 15 1018.0 1018.0 0.0
04/09:00am 16.5 12.6 9.4 63 3.7 W 20 26 11 14 1018.0 1018.0 0.0
04/08:30am 16.3 12.9 9.3 63 3.6 W 17 24 9 13 1017.9 1017.9 0.0
04/08:00am 15.9 12.5 9.1 64 3.5 W 17 24 9 13 1017.7 1017.7 0.0
04/07:30am 15.6 11.9 9.4 66 3.2 W 19 26 10 14 1017.3 1017.3 0.0
04/07:00am 15.4 11.9 8.9 65 3.3 W 17 22 9 12 1017.0 1017.0 0.0
04/06:30am 15.3 12.8 9.7 69 2.9 W 13 15 7 8 1016.8 1016.8 0.0
04/06:00am 15.0 12.4 9.4 69 2.9 SW 13 17 7 9 1016.6 1016.6 0.0
04/05:30am 14.9 11.8 8.8 67 3.1 WSW 15 17 8 9 1016.2 1016.2 0.0
04/05:00am 14.9 11.4 8.8 67 3.1 WSW 17 26 9 14 1016.2 1016.2 0.0
04/04:30am 14.9 11.5 9.0 68 3.0 SW 17 24 9 13 1016.0 1016.0 0.0
04/04:00am 14.8 11.3 8.7 67 3.1 SW 17 22 9 12 1016.0 1016.0 0.0
04/03:30am 14.7 10.7 8.1 64 3.3 SW 19 26 10 14 1016.0 1016.0 0.0
04/03:00am 15.2 11.7 8.9 66 3.2 SW 17 26 9 14 1016.1 1016.1 0.0
04/02:30am 15.3 11.9 9.3 67 3.1 SW 17 22 9 12 1016.2 1016.2 0.0
04/02:00am 15.2 11.6 10.0 71 2.7 SW 19 26 10 14 1016.3 1016.3 0.0
04/01:30am 15.5 11.2 9.5 67 3.1 WSW 22 28 12 15 1016.6 1016.6 0.0
04/01:00am 15.7 12.6 10.2 70 2.9 SW 17 26 9 14 1016.6 1016.6 0.0
04/12:30am 15.9 12.3 10.0 68 3.1 SW 19 24 10 13 1016.6 1016.6 0.0
04/12:00am 15.7 13.0 10.4 71 2.8 SSW 15 20 8 11 1016.7 1016.7 0.0
 
Date/Time
CDT
Temp
°C
App
Temp
°C
Dew
Point
°C
Rel
Hum
%
Delta-T
°C
Wind Press
QNH
hPa
Press
MSL
hPa
Rain since
9am
mm
Dir  Spd
km/h
Gust
km/h
Spd
kts
Gust
kts
03/11:30pm 15.8 13.1 10.5 71 2.8 SSW 15 24 8 13 1016.7 1016.7 0.0
03/11:00pm 16.0 11.9 11.6 75 2.4 WSW 24 33 13 18 1016.8 1016.8 0.0
03/10:30pm 15.7 11.3 11.6 76 2.2 SW 26 39 14 21 1016.8 1016.8 0.0
03/10:00pm 15.7 11.1 11.2 74 2.4 SW 26 33 14 18 1016.7 1016.7 0.0

Latest Capital City Observations: Canberra | Sydney | Melbourne | Brisbane | Adelaide | Perth | Hobart | Darwin

Other formats

Comma delimited format used in spreadsheet applications
http://www.bom.gov.au/fwo/IDS60901/IDS60901.94672.axf

JavaScript Object Notation format (JSON) in row-major order
http://www.bom.gov.au/fwo/IDS60901/IDS60901.94672.json

Data quality

Most of these data are generated automatically and are frequently updated. Quality checks on data are not normally performed. It is possible for incorrect values to appear. Refer to information at About Latest Weather Observations and please check the disclaimer before using these data.